sensor_id;sensor_type;location;lat;lon;timestamp;P1;durP1;ratioP1;P2;durP2;ratioP2
3561;SDS011;1795;52.074;4.754;2022-11-12T00:00:50;14.77;;;9.07;;
3561;SDS011;1795;52.074;4.754;2022-11-12T00:03:18;11.80;;;8.50;;
3561;SDS011;1795;52.074;4.754;2022-11-12T00:05:47;12.30;;;8.90;;
3561;SDS011;1795;52.074;4.754;2022-11-12T00:08:17;12.95;;;9.27;;
3561;SDS011;1795;52.074;4.754;2022-11-12T00:10:45;11.43;;;8.23;;
3561;SDS011;1795;52.074;4.754;2022-11-12T00:13:14;9.77;;;8.17;;
3561;SDS011;1795;52.074;4.754;2022-11-12T00:15:43;14.13;;;9.00;;
3561;SDS011;1795;52.074;4.754;2022-11-12T00:18:12;12.80;;;9.20;;
3561;SDS011;1795;52.074;4.754;2022-11-12T00:20:40;13.40;;;8.70;;
3561;SDS011;1795;52.074;4.754;2022-11-12T00:23:08;11.93;;;7.80;;
3561;SDS011;1795;52.074;4.754;2022-11-12T00:25:38;10.82;;;7.30;;
3561;SDS011;1795;52.074;4.754;2022-11-12T00:28:07;10.77;;;8.80;;
3561;SDS011;1795;52.074;4.754;2022-11-12T00:30:36;10.35;;;7.85;;
3561;SDS011;1795;52.074;4.754;2022-11-12T00:33:05;10.80;;;8.05;;
3561;SDS011;1795;52.074;4.754;2022-11-12T00:35:33;11.05;;;8.10;;
3561;SDS011;1795;52.074;4.754;2022-11-12T00:38:01;11.40;;;8.00;;
3561;SDS011;1795;52.074;4.754;2022-11-12T00:40:30;12.63;;;8.82;;
3561;SDS011;1795;52.074;4.754;2022-11-12T00:42:59;9.10;;;7.40;;
3561;SDS011;1795;52.074;4.754;2022-11-12T00:45:28;10.50;;;8.00;;
3561;SDS011;1795;52.074;4.754;2022-11-12T00:47:56;10.43;;;7.50;;
3561;SDS011;1795;52.074;4.754;2022-11-12T00:50:24;12.20;;;7.82;;
3561;SDS011;1795;52.074;4.754;2022-11-12T00:52:52;10.63;;;8.10;;
3561;SDS011;1795;52.074;4.754;2022-11-12T00:55:21;9.20;;;7.90;;
3561;SDS011;1795;52.074;4.754;2022-11-12T00:57:49;9.65;;;7.82;;
3561;SDS011;1795;52.074;4.754;2022-11-12T01:00:19;10.48;;;8.52;;
3561;SDS011;1795;52.074;4.754;2022-11-12T01:02:48;11.43;;;7.65;;
3561;SDS011;1795;52.074;4.754;2022-11-12T01:05:16;8.43;;;7.63;;
3561;SDS011;1795;52.074;4.754;2022-11-12T01:07:45;11.40;;;7.95;;
3561;SDS011;1795;52.074;4.754;2022-11-12T01:10:20;10.40;;;7.50;;
3561;SDS011;1795;52.074;4.754;2022-11-12T01:12:49;10.13;;;8.07;;
3561;SDS011;1795;52.074;4.754;2022-11-12T01:15:18;11.55;;;8.65;;
3561;SDS011;1795;52.074;4.754;2022-11-12T01:17:47;11.30;;;8.00;;
3561;SDS011;1795;52.074;4.754;2022-11-12T01:20:15;11.25;;;7.50;;
3561;SDS011;1795;52.074;4.754;2022-11-12T01:22:43;9.40;;;7.33;;
3561;SDS011;1795;52.074;4.754;2022-11-12T01:25:11;10.20;;;7.53;;
3561;SDS011;1795;52.074;4.754;2022-11-12T01:27:40;9.05;;;7.88;;
3561;SDS011;1795;52.074;4.754;2022-11-12T01:30:08;12.90;;;8.90;;
3561;SDS011;1795;52.074;4.754;2022-11-12T01:32:38;9.73;;;8.60;;
3561;SDS011;1795;52.074;4.754;2022-11-12T01:35:06;11.73;;;8.20;;
3561;SDS011;1795;52.074;4.754;2022-11-12T01:37:35;11.07;;;8.52;;
3561;SDS011;1795;52.074;4.754;2022-11-12T01:40:03;10.98;;;8.88;;
3561;SDS011;1795;52.074;4.754;2022-11-12T01:42:32;11.82;;;8.80;;
3561;SDS011;1795;52.074;4.754;2022-11-12T01:45:00;11.70;;;8.85;;
3561;SDS011;1795;52.074;4.754;2022-11-12T01:47:29;12.20;;;8.70;;
3561;SDS011;1795;52.074;4.754;2022-11-12T01:50:00;11.20;;;9.07;;
3561;SDS011;1795;52.074;4.754;2022-11-12T01:52:33;14.80;;;9.95;;
3561;SDS011;1795;52.074;4.754;2022-11-12T01:55:04;15.60;;;10.00;;
3561;SDS011;1795;52.074;4.754;2022-11-12T01:57:35;13.43;;;8.82;;
3561;SDS011;1795;52.074;4.754;2022-11-12T02:00:06;12.70;;;9.27;;
3561;SDS011;1795;52.074;4.754;2022-11-12T02:02:35;11.50;;;9.23;;
3561;SDS011;1795;52.074;4.754;2022-11-12T02:05:06;11.85;;;8.90;;
3561;SDS011;1795;52.074;4.754;2022-11-12T02:07:35;12.27;;;9.50;;
3561;SDS011;1795;52.074;4.754;2022-11-12T02:10:05;14.07;;;10.50;;
3561;SDS011;1795;52.074;4.754;2022-11-12T02:12:34;15.27;;;10.97;;
3561;SDS011;1795;52.074;4.754;2022-11-12T02:15:21;13.20;;;10.50;;
3561;SDS011;1795;52.074;4.754;2022-11-12T02:17:49;14.13;;;10.63;;
3561;SDS011;1795;52.074;4.754;2022-11-12T02:20:19;15.15;;;11.00;;
3561;SDS011;1795;52.074;4.754;2022-11-12T02:22:48;14.73;;;10.70;;
3561;SDS011;1795;52.074;4.754;2022-11-12T02:25:17;15.03;;;11.57;;
3561;SDS011;1795;52.074;4.754;2022-11-12T02:27:46;15.32;;;11.48;;
3561;SDS011;1795;52.074;4.754;2022-11-12T02:30:16;18.17;;;12.90;;
3561;SDS011;1795;52.074;4.754;2022-11-12T02:32:45;16.77;;;11.90;;
3561;SDS011;1795;52.074;4.754;2022-11-12T02:35:13;16.17;;;12.32;;
3561;SDS011;1795;52.074;4.754;2022-11-12T02:37:41;16.45;;;12.00;;
3561;SDS011;1795;52.074;4.754;2022-11-12T02:40:11;17.88;;;12.30;;
3561;SDS011;1795;52.074;4.754;2022-11-12T02:42:39;18.60;;;12.20;;
3561;SDS011;1795;52.074;4.754;2022-11-12T02:45:08;15.98;;;12.05;;
3561;SDS011;1795;52.074;4.754;2022-11-12T02:47:36;16.88;;;12.25;;
3561;SDS011;1795;52.074;4.754;2022-11-12T02:50:05;16.05;;;12.10;;
3561;SDS011;1795;52.074;4.754;2022-11-12T02:52:34;19.75;;;12.25;;
3561;SDS011;1795;52.074;4.754;2022-11-12T02:55:02;18.35;;;12.73;;
3561;SDS011;1795;52.074;4.754;2022-11-12T02:57:32;16.33;;;11.45;;
3561;SDS011;1795;52.074;4.754;2022-11-12T03:00:00;15.85;;;12.25;;
3561;SDS011;1795;52.074;4.754;2022-11-12T03:02:28;17.80;;;12.50;;
3561;SDS011;1795;52.074;4.754;2022-11-12T03:04:57;17.07;;;11.97;;
3561;SDS011;1795;52.074;4.754;2022-11-12T03:07:25;15.73;;;10.60;;
3561;SDS011;1795;52.074;4.754;2022-11-12T03:09:53;14.45;;;11.18;;
3561;SDS011;1795;52.074;4.754;2022-11-12T03:12:21;16.75;;;11.20;;
3561;SDS011;1795;52.074;4.754;2022-11-12T03:14:51;18.08;;;12.27;;
3561;SDS011;1795;52.074;4.754;2022-11-12T03:17:19;14.75;;;11.50;;
3561;SDS011;1795;52.074;4.754;2022-11-12T03:19:47;16.35;;;11.10;;
3561;SDS011;1795;52.074;4.754;2022-11-12T03:22:16;15.90;;;10.98;;
3561;SDS011;1795;52.074;4.754;2022-11-12T03:24:44;15.45;;;11.60;;
3561;SDS011;1795;52.074;4.754;2022-11-12T03:27:12;16.60;;;11.15;;
3561;SDS011;1795;52.074;4.754;2022-11-12T03:29:40;16.03;;;12.20;;
3561;SDS011;1795;52.074;4.754;2022-11-12T03:32:10;18.42;;;12.10;;
3561;SDS011;1795;52.074;4.754;2022-11-12T03:34:38;20.48;;;12.90;;
3561;SDS011;1795;52.074;4.754;2022-11-12T03:37:07;17.57;;;13.00;;
3561;SDS011;1795;52.074;4.754;2022-11-12T03:39:35;21.10;;;14.00;;
3561;SDS011;1795;52.074;4.754;2022-11-12T03:42:03;19.20;;;13.00;;
3561;SDS011;1795;52.074;4.754;2022-11-12T03:44:32;19.50;;;13.20;;
3561;SDS011;1795;52.074;4.754;2022-11-12T03:47:00;19.08;;;13.27;;
3561;SDS011;1795;52.074;4.754;2022-11-12T03:49:30;19.90;;;13.88;;
3561;SDS011;1795;52.074;4.754;2022-11-12T03:51:58;19.88;;;13.50;;
3561;SDS011;1795;52.074;4.754;2022-11-12T03:54:26;22.00;;;14.30;;
3561;SDS011;1795;52.074;4.754;2022-11-12T03:56:54;18.98;;;14.10;;
3561;SDS011;1795;52.074;4.754;2022-11-12T03:59:23;23.65;;;14.85;;
3561;SDS011;1795;52.074;4.754;2022-11-12T04:01:51;23.10;;;15.05;;
3561;SDS011;1795;52.074;4.754;2022-11-12T04:04:19;25.00;;;16.05;;
3561;SDS011;1795;52.074;4.754;2022-11-12T04:06:49;23.77;;;15.37;;
3561;SDS011;1795;52.074;4.754;2022-11-12T04:09:35;24.10;;;15.80;;
3561;SDS011;1795;52.074;4.754;2022-11-12T04:12:03;22.55;;;15.43;;
3561;SDS011;1795;52.074;4.754;2022-11-12T04:14:45;22.48;;;15.32;;
3561;SDS011;1795;52.074;4.754;2022-11-12T04:17:13;21.35;;;14.40;;
3561;SDS011;1795;52.074;4.754;2022-11-12T04:19:59;20.90;;;14.30;;
3561;SDS011;1795;52.074;4.754;2022-11-12T04:22:47;20.05;;;14.60;;
3561;SDS011;1795;52.074;4.754;2022-11-12T04:25:15;21.25;;;14.82;;
3561;SDS011;1795;52.074;4.754;2022-11-12T04:28:01;19.63;;;13.57;;
3561;SDS011;1795;52.074;4.754;2022-11-12T04:30:29;21.92;;;13.80;;
3561;SDS011;1795;52.074;4.754;2022-11-12T04:32:56;21.23;;;14.10;;
3561;SDS011;1795;52.074;4.754;2022-11-12T04:35:26;20.15;;;14.05;;
3561;SDS011;1795;52.074;4.754;2022-11-12T04:37:55;22.52;;;15.10;;
3561;SDS011;1795;52.074;4.754;2022-11-12T04:40:24;21.48;;;14.80;;
3561;SDS011;1795;52.074;4.754;2022-11-12T04:43:11;18.73;;;12.97;;
3561;SDS011;1795;52.074;4.754;2022-11-12T04:45:57;18.10;;;12.77;;
3561;SDS011;1795;52.074;4.754;2022-11-12T04:48:25;17.52;;;13.05;;
3561;SDS011;1795;52.074;4.754;2022-11-12T04:50:55;16.98;;;13.10;;
3561;SDS011;1795;52.074;4.754;2022-11-12T04:53:26;16.02;;;12.52;;
3561;SDS011;1795;52.074;4.754;2022-11-12T04:55:55;14.95;;;12.43;;
3561;SDS011;1795;52.074;4.754;2022-11-12T04:58:23;18.23;;;12.98;;
3561;SDS011;1795;52.074;4.754;2022-11-12T05:00:52;17.15;;;12.15;;
3561;SDS011;1795;52.074;4.754;2022-11-12T05:03:20;15.25;;;11.50;;
3561;SDS011;1795;52.074;4.754;2022-11-12T05:05:48;14.73;;;11.98;;
3561;SDS011;1795;52.074;4.754;2022-11-12T05:08:17;14.07;;;11.55;;
3561;SDS011;1795;52.074;4.754;2022-11-12T05:10:46;16.40;;;11.52;;
3561;SDS011;1795;52.074;4.754;2022-11-12T05:13:14;13.70;;;10.98;;
3561;SDS011;1795;52.074;4.754;2022-11-12T05:15:43;13.93;;;11.32;;
3561;SDS011;1795;52.074;4.754;2022-11-12T05:18:11;13.75;;;10.93;;
3561;SDS011;1795;52.074;4.754;2022-11-12T05:20:39;14.50;;;10.85;;
3561;SDS011;1795;52.074;4.754;2022-11-12T05:23:07;14.13;;;10.95;;
3561;SDS011;1795;52.074;4.754;2022-11-12T05:25:36;12.65;;;10.38;;
3561;SDS011;1795;52.074;4.754;2022-11-12T05:28:05;12.50;;;10.60;;
3561;SDS011;1795;52.074;4.754;2022-11-12T05:30:33;13.05;;;10.35;;
3561;SDS011;1795;52.074;4.754;2022-11-12T05:33:02;12.93;;;10.65;;
3561;SDS011;1795;52.074;4.754;2022-11-12T05:35:30;11.50;;;10.00;;
3561;SDS011;1795;52.074;4.754;2022-11-12T05:37:58;10.47;;;8.93;;
3561;SDS011;1795;52.074;4.754;2022-11-12T05:40:26;12.23;;;9.27;;
3561;SDS011;1795;52.074;4.754;2022-11-12T05:42:54;11.05;;;9.57;;
3561;SDS011;1795;52.074;4.754;2022-11-12T05:45:24;11.15;;;9.02;;
3561;SDS011;1795;52.074;4.754;2022-11-12T05:47:52;10.90;;;9.70;;
3561;SDS011;1795;52.074;4.754;2022-11-12T05:50:21;12.63;;;10.15;;
3561;SDS011;1795;52.074;4.754;2022-11-12T05:52:49;10.65;;;9.50;;
3561;SDS011;1795;52.074;4.754;2022-11-12T05:55:17;10.43;;;9.30;;
3561;SDS011;1795;52.074;4.754;2022-11-12T05:57:45;11.88;;;9.50;;
3561;SDS011;1795;52.074;4.754;2022-11-12T06:00:14;10.80;;;9.35;;
3561;SDS011;1795;52.074;4.754;2022-11-12T06:02:44;9.45;;;8.25;;
3561;SDS011;1795;52.074;4.754;2022-11-12T06:05:12;11.32;;;9.20;;
3561;SDS011;1795;52.074;4.754;2022-11-12T06:07:40;9.30;;;8.30;;
3561;SDS011;1795;52.074;4.754;2022-11-12T06:10:08;10.15;;;8.63;;
3561;SDS011;1795;52.074;4.754;2022-11-12T06:12:44;10.52;;;8.82;;
3561;SDS011;1795;52.074;4.754;2022-11-12T06:15:12;10.07;;;8.90;;
3561;SDS011;1795;52.074;4.754;2022-11-12T06:17:40;10.60;;;8.75;;
3561;SDS011;1795;52.074;4.754;2022-11-12T06:20:10;10.07;;;9.07;;
3561;SDS011;1795;52.074;4.754;2022-11-12T06:22:39;9.65;;;8.30;;
3561;SDS011;1795;52.074;4.754;2022-11-12T06:25:07;10.10;;;8.55;;
3561;SDS011;1795;52.074;4.754;2022-11-12T06:27:35;9.18;;;8.27;;
3561;SDS011;1795;52.074;4.754;2022-11-12T06:30:04;8.30;;;7.50;;
3561;SDS011;1795;52.074;4.754;2022-11-12T06:32:33;9.23;;;8.32;;
3561;SDS011;1795;52.074;4.754;2022-11-12T06:35:01;10.30;;;8.90;;
3561;SDS011;1795;52.074;4.754;2022-11-12T06:37:31;8.32;;;7.50;;
3561;SDS011;1795;52.074;4.754;2022-11-12T06:39:59;9.60;;;7.30;;
3561;SDS011;1795;52.074;4.754;2022-11-12T06:42:27;8.57;;;7.75;;
3561;SDS011;1795;52.074;4.754;2022-11-12T06:44:55;9.13;;;7.30;;
3561;SDS011;1795;52.074;4.754;2022-11-12T06:47:24;8.48;;;7.55;;
3561;SDS011;1795;52.074;4.754;2022-11-12T06:49:52;7.80;;;7.00;;
3561;SDS011;1795;52.074;4.754;2022-11-12T06:52:20;8.40;;;6.73;;
3561;SDS011;1795;52.074;4.754;2022-11-12T06:54:50;7.93;;;7.13;;
3561;SDS011;1795;52.074;4.754;2022-11-12T06:57:18;7.53;;;6.83;;
3561;SDS011;1795;52.074;4.754;2022-11-12T06:59:46;7.80;;;7.00;;
3561;SDS011;1795;52.074;4.754;2022-11-12T07:02:15;7.38;;;6.47;;
3561;SDS011;1795;52.074;4.754;2022-11-12T07:04:43;7.40;;;6.70;;
3561;SDS011;1795;52.074;4.754;2022-11-12T07:07:11;7.50;;;6.80;;
3561;SDS011;1795;52.074;4.754;2022-11-12T07:09:39;7.63;;;6.83;;
3561;SDS011;1795;52.074;4.754;2022-11-12T07:12:09;7.00;;;6.30;;
3561;SDS011;1795;52.074;4.754;2022-11-12T07:14:37;7.60;;;6.80;;
3561;SDS011;1795;52.074;4.754;2022-11-12T07:17:05;7.38;;;6.65;;
3561;SDS011;1795;52.074;4.754;2022-11-12T07:19:34;9.95;;;6.75;;
3561;SDS011;1795;52.074;4.754;2022-11-12T07:22:02;8.43;;;6.00;;
3561;SDS011;1795;52.074;4.754;2022-11-12T07:24:30;7.35;;;6.50;;
3561;SDS011;1795;52.074;4.754;2022-11-12T07:26:58;7.30;;;6.60;;
3561;SDS011;1795;52.074;4.754;2022-11-12T07:29:28;7.30;;;6.60;;
3561;SDS011;1795;52.074;4.754;2022-11-12T07:32:13;7.13;;;6.43;;
3561;SDS011;1795;52.074;4.754;2022-11-12T07:34:41;7.70;;;6.90;;
3561;SDS011;1795;52.074;4.754;2022-11-12T07:37:10;8.52;;;6.65;;
3561;SDS011;1795;52.074;4.754;2022-11-12T07:39:38;7.20;;;6.50;;
3561;SDS011;1795;52.074;4.754;2022-11-12T07:42:06;8.10;;;7.30;;
3561;SDS011;1795;52.074;4.754;2022-11-12T07:44:36;8.00;;;6.55;;
3561;SDS011;1795;52.074;4.754;2022-11-12T07:47:04;7.47;;;6.68;;
3561;SDS011;1795;52.074;4.754;2022-11-12T07:49:32;7.97;;;7.15;;
3561;SDS011;1795;52.074;4.754;2022-11-12T07:52:00;8.45;;;7.13;;
3561;SDS011;1795;52.074;4.754;2022-11-12T07:54:29;9.18;;;7.80;;
3561;SDS011;1795;52.074;4.754;2022-11-12T07:56:57;8.90;;;7.75;;
3561;SDS011;1795;52.074;4.754;2022-11-12T07:59:25;8.77;;;7.60;;
3561;SDS011;1795;52.074;4.754;2022-11-12T08:01:55;8.95;;;7.32;;
3561;SDS011;1795;52.074;4.754;2022-11-12T08:04:23;9.45;;;8.10;;
3561;SDS011;1795;52.074;4.754;2022-11-12T08:06:51;10.90;;;9.10;;
3561;SDS011;1795;52.074;4.754;2022-11-12T08:09:20;9.68;;;8.50;;
3561;SDS011;1795;52.074;4.754;2022-11-12T08:11:48;10.55;;;8.65;;
3561;SDS011;1795;52.074;4.754;2022-11-12T08:14:16;10.45;;;8.65;;
3561;SDS011;1795;52.074;4.754;2022-11-12T08:16:45;11.05;;;8.88;;
3561;SDS011;1795;52.074;4.754;2022-11-12T08:19:14;11.73;;;8.90;;
3561;SDS011;1795;52.074;4.754;2022-11-12T08:21:42;10.77;;;9.05;;
3561;SDS011;1795;52.074;4.754;2022-11-12T08:24:11;12.40;;;9.57;;
3561;SDS011;1795;52.074;4.754;2022-11-12T08:26:39;12.80;;;9.37;;
3561;SDS011;1795;52.074;4.754;2022-11-12T08:29:07;12.48;;;9.07;;
3561;SDS011;1795;52.074;4.754;2022-11-12T08:31:35;11.82;;;9.60;;
3561;SDS011;1795;52.074;4.754;2022-11-12T08:34:04;12.75;;;10.18;;
3561;SDS011;1795;52.074;4.754;2022-11-12T08:36:43;10.27;;;8.97;;
3561;SDS011;1795;52.074;4.754;2022-11-12T08:39:12;14.63;;;9.50;;
3561;SDS011;1795;52.074;4.754;2022-11-12T08:41:40;12.88;;;9.75;;
3561;SDS011;1795;52.074;4.754;2022-11-12T08:44:08;9.82;;;8.82;;
3561;SDS011;1795;52.074;4.754;2022-11-12T08:46:36;12.33;;;9.77;;
3561;SDS011;1795;52.074;4.754;2022-11-12T08:49:04;12.02;;;9.77;;
3561;SDS011;1795;52.074;4.754;2022-11-12T08:51:33;11.73;;;9.88;;
3561;SDS011;1795;52.074;4.754;2022-11-12T08:54:02;12.77;;;9.95;;
3561;SDS011;1795;52.074;4.754;2022-11-12T08:56:31;14.70;;;11.13;;
3561;SDS011;1795;52.074;4.754;2022-11-12T08:58:59;13.45;;;10.98;;
3561;SDS011;1795;52.074;4.754;2022-11-12T09:01:32;13.85;;;10.60;;
3561;SDS011;1795;52.074;4.754;2022-11-12T09:04:00;14.70;;;10.80;;
3561;SDS011;1795;52.074;4.754;2022-11-12T09:06:29;14.45;;;10.98;;
3561;SDS011;1795;52.074;4.754;2022-11-12T09:08:57;14.00;;;10.68;;
3561;SDS011;1795;52.074;4.754;2022-11-12T09:11:27;15.40;;;11.60;;
3561;SDS011;1795;52.074;4.754;2022-11-12T09:13:55;16.13;;;12.55;;
3561;SDS011;1795;52.074;4.754;2022-11-12T09:16:23;14.45;;;11.98;;
3561;SDS011;1795;52.074;4.754;2022-11-12T09:18:51;17.77;;;12.52;;
3561;SDS011;1795;52.074;4.754;2022-11-12T09:21:20;17.10;;;12.85;;
3561;SDS011;1795;52.074;4.754;2022-11-12T09:23:50;18.20;;;13.00;;
3561;SDS011;1795;52.074;4.754;2022-11-12T09:26:18;17.60;;;12.90;;
3561;SDS011;1795;52.074;4.754;2022-11-12T09:28:47;19.95;;;13.30;;
3561;SDS011;1795;52.074;4.754;2022-11-12T09:31:17;14.57;;;11.68;;
3561;SDS011;1795;52.074;4.754;2022-11-12T09:33:45;15.23;;;12.52;;
3561;SDS011;1795;52.074;4.754;2022-11-12T09:36:13;21.42;;;14.10;;
3561;SDS011;1795;52.074;4.754;2022-11-12T09:38:43;16.10;;;12.15;;
3561;SDS011;1795;52.074;4.754;2022-11-12T09:41:24;17.42;;;12.32;;
3561;SDS011;1795;52.074;4.754;2022-11-12T09:43:57;15.95;;;12.05;;
3561;SDS011;1795;52.074;4.754;2022-11-12T09:46:35;16.67;;;12.15;;
3561;SDS011;1795;52.074;4.754;2022-11-12T09:49:07;16.80;;;12.65;;
3561;SDS011;1795;52.074;4.754;2022-11-12T09:51:38;16.45;;;12.60;;
3561;SDS011;1795;52.074;4.754;2022-11-12T09:54:12;17.30;;;13.30;;
3561;SDS011;1795;52.074;4.754;2022-11-12T09:56:46;16.60;;;11.98;;
3561;SDS011;1795;52.074;4.754;2022-11-12T09:59:15;15.90;;;12.88;;
3561;SDS011;1795;52.074;4.754;2022-11-12T10:01:53;17.40;;;13.00;;
3561;SDS011;1795;52.074;4.754;2022-11-12T10:07:11;17.63;;;13.13;;
3561;SDS011;1795;52.074;4.754;2022-11-12T10:09:42;17.85;;;12.93;;
3561;SDS011;1795;52.074;4.754;2022-11-12T10:12:15;16.70;;;12.80;;
3561;SDS011;1795;52.074;4.754;2022-11-12T10:15:23;18.17;;;13.35;;
3561;SDS011;1795;52.074;4.754;2022-11-12T10:18:12;16.05;;;12.70;;
3561;SDS011;1795;52.074;4.754;2022-11-12T10:20:42;16.85;;;12.38;;
3561;SDS011;1795;52.074;4.754;2022-11-12T10:23:14;17.17;;;12.90;;
3561;SDS011;1795;52.074;4.754;2022-11-12T10:25:44;15.18;;;11.93;;
3561;SDS011;1795;52.074;4.754;2022-11-12T10:28:16;17.07;;;11.90;;
3561;SDS011;1795;52.074;4.754;2022-11-12T10:30:49;16.10;;;11.40;;
3561;SDS011;1795;52.074;4.754;2022-11-12T10:33:17;14.60;;;11.88;;
3561;SDS011;1795;52.074;4.754;2022-11-12T10:35:46;16.73;;;11.30;;
3561;SDS011;1795;52.074;4.754;2022-11-12T10:38:15;16.95;;;11.25;;
3561;SDS011;1795;52.074;4.754;2022-11-12T10:40:45;13.88;;;11.55;;
3561;SDS011;1795;52.074;4.754;2022-11-12T10:43:20;14.18;;;10.98;;
3561;SDS011;1795;52.074;4.754;2022-11-12T10:45:50;13.88;;;11.27;;
3561;SDS011;1795;52.074;4.754;2022-11-12T10:48:21;15.60;;;11.32;;
3561;SDS011;1795;52.074;4.754;2022-11-12T10:50:53;15.75;;;9.90;;
3561;SDS011;1795;52.074;4.754;2022-11-12T10:53:30;13.88;;;10.80;;
3561;SDS011;1795;52.074;4.754;2022-11-12T10:55:59;14.60;;;10.52;;
3561;SDS011;1795;52.074;4.754;2022-11-12T10:58:28;12.07;;;10.47;;
3561;SDS011;1795;52.074;4.754;2022-11-12T11:00:59;12.65;;;9.93;;
3561;SDS011;1795;52.074;4.754;2022-11-12T11:03:28;14.02;;;10.57;;
3561;SDS011;1795;52.074;4.754;2022-11-12T11:05:58;11.88;;;9.77;;
3561;SDS011;1795;52.074;4.754;2022-11-12T11:08:35;12.65;;;10.02;;
3561;SDS011;1795;52.074;4.754;2022-11-12T11:11:15;11.27;;;9.70;;
3561;SDS011;1795;52.074;4.754;2022-11-12T11:13:44;11.93;;;10.00;;
3561;SDS011;1795;52.074;4.754;2022-11-12T11:16:22;12.18;;;9.55;;
3561;SDS011;1795;52.074;4.754;2022-11-12T11:18:52;14.20;;;9.80;;
3561;SDS011;1795;52.074;4.754;2022-11-12T11:24:19;12.32;;;10.02;;
3561;SDS011;1795;52.074;4.754;2022-11-12T11:26:51;11.20;;;9.75;;
3561;SDS011;1795;52.074;4.754;2022-11-12T11:29:27;13.35;;;10.20;;
3561;SDS011;1795;52.074;4.754;2022-11-12T11:31:59;14.50;;;10.68;;
3561;SDS011;1795;52.074;4.754;2022-11-12T11:34:34;13.88;;;10.50;;
3561;SDS011;1795;52.074;4.754;2022-11-12T11:37:07;13.43;;;10.50;;
3561;SDS011;1795;52.074;4.754;2022-11-12T11:39:42;13.55;;;10.00;;
3561;SDS011;1795;52.074;4.754;2022-11-12T11:42:19;13.23;;;9.60;;
3561;SDS011;1795;52.074;4.754;2022-11-12T11:44:54;10.80;;;9.07;;
3561;SDS011;1795;52.074;4.754;2022-11-12T11:47:30;14.52;;;10.23;;
3561;SDS011;1795;52.074;4.754;2022-11-12T11:50:24;12.20;;;9.27;;
3561;SDS011;1795;52.074;4.754;2022-11-12T11:52:59;9.65;;;8.65;;
3561;SDS011;1795;52.074;4.754;2022-11-12T11:55:34;12.13;;;9.68;;
3561;SDS011;1795;52.074;4.754;2022-11-12T11:58:05;11.15;;;8.85;;
3561;SDS011;1795;52.074;4.754;2022-11-12T12:00:38;11.50;;;9.00;;
3561;SDS011;1795;52.074;4.754;2022-11-12T12:03:18;12.35;;;9.00;;
3561;SDS011;1795;52.074;4.754;2022-11-12T12:06:03;11.02;;;9.10;;
3561;SDS011;1795;52.074;4.754;2022-11-12T12:08:47;10.70;;;8.73;;
3561;SDS011;1795;52.074;4.754;2022-11-12T12:11:22;13.20;;;9.10;;
3561;SDS011;1795;52.074;4.754;2022-11-12T12:13:58;10.60;;;8.20;;
3561;SDS011;1795;52.074;4.754;2022-11-12T12:16:32;11.00;;;8.20;;
3561;SDS011;1795;52.074;4.754;2022-11-12T12:19:06;9.50;;;8.00;;
3561;SDS011;1795;52.074;4.754;2022-11-12T12:21:35;10.23;;;8.05;;
3561;SDS011;1795;52.074;4.754;2022-11-12T12:24:08;10.63;;;8.45;;
3561;SDS011;1795;52.074;4.754;2022-11-12T12:26:39;10.52;;;8.40;;
3561;SDS011;1795;52.074;4.754;2022-11-12T12:29:10;12.05;;;8.90;;
3561;SDS011;1795;52.074;4.754;2022-11-12T12:31:40;10.38;;;8.98;;
3561;SDS011;1795;52.074;4.754;2022-11-12T12:34:14;10.25;;;8.73;;
3561;SDS011;1795;52.074;4.754;2022-11-12T12:36:46;13.20;;;9.00;;
3561;SDS011;1795;52.074;4.754;2022-11-12T12:39:17;9.98;;;8.20;;
3561;SDS011;1795;52.074;4.754;2022-11-12T12:41:48;10.48;;;8.50;;
3561;SDS011;1795;52.074;4.754;2022-11-12T12:44:18;11.15;;;8.95;;
3561;SDS011;1795;52.074;4.754;2022-11-12T12:46:48;9.77;;;8.50;;
3561;SDS011;1795;52.074;4.754;2022-11-12T12:49:21;11.48;;;8.77;;
3561;SDS011;1795;52.074;4.754;2022-11-12T12:51:52;10.70;;;8.25;;
3561;SDS011;1795;52.074;4.754;2022-11-12T12:57:29;10.40;;;8.20;;
3561;SDS011;1795;52.074;4.754;2022-11-12T13:02:45;11.27;;;8.30;;
3561;SDS011;1795;52.074;4.754;2022-11-12T13:05:24;9.63;;;8.30;;
3561;SDS011;1795;52.074;4.754;2022-11-12T13:07:53;10.95;;;8.35;;
3561;SDS011;1795;52.074;4.754;2022-11-12T13:10:33;11.17;;;8.33;;
3561;SDS011;1795;52.074;4.754;2022-11-12T13:13:03;9.73;;;7.70;;
3561;SDS011;1795;52.074;4.754;2022-11-12T13:15:41;9.60;;;7.70;;
3561;SDS011;1795;52.074;4.754;2022-11-12T13:18:09;10.80;;;7.47;;
3561;SDS011;1795;52.074;4.754;2022-11-12T13:20:44;10.10;;;7.55;;
3561;SDS011;1795;52.074;4.754;2022-11-12T13:23:43;8.87;;;7.13;;
3561;SDS011;1795;52.074;4.754;2022-11-12T13:29:22;11.65;;;7.65;;
3561;SDS011;1795;52.074;4.754;2022-11-12T13:34:34;7.95;;;7.05;;
3561;SDS011;1795;52.074;4.754;2022-11-12T13:37:03;8.68;;;7.03;;
3561;SDS011;1795;52.074;4.754;2022-11-12T13:39:33;7.47;;;6.67;;
3561;SDS011;1795;52.074;4.754;2022-11-12T13:42:07;12.23;;;7.53;;
3561;SDS011;1795;52.074;4.754;2022-11-12T13:45:04;9.95;;;7.30;;
3561;SDS011;1795;52.074;4.754;2022-11-12T13:47:33;7.55;;;6.80;;
3561;SDS011;1795;52.074;4.754;2022-11-12T13:50:01;8.10;;;7.30;;
3561;SDS011;1795;52.074;4.754;2022-11-12T13:52:29;7.80;;;6.70;;
3561;SDS011;1795;52.074;4.754;2022-11-12T13:55:02;8.68;;;6.40;;
3561;SDS011;1795;52.074;4.754;2022-11-12T13:57:31;7.30;;;6.50;;
3561;SDS011;1795;52.074;4.754;2022-11-12T14:00:06;9.40;;;7.10;;
3561;SDS011;1795;52.074;4.754;2022-11-12T14:02:35;9.77;;;7.03;;
3561;SDS011;1795;52.074;4.754;2022-11-12T14:05:13;8.10;;;6.32;;
3561;SDS011;1795;52.074;4.754;2022-11-12T14:07:45;7.68;;;6.22;;
3561;SDS011;1795;52.074;4.754;2022-11-12T14:10:20;6.68;;;6.00;;
3561;SDS011;1795;52.074;4.754;2022-11-12T14:12:56;9.32;;;6.20;;
3561;SDS011;1795;52.074;4.754;2022-11-12T14:15:32;10.02;;;6.03;;
3561;SDS011;1795;52.074;4.754;2022-11-12T14:18:05;12.45;;;6.43;;
3561;SDS011;1795;52.074;4.754;2022-11-12T14:20:35;8.70;;;6.43;;
3561;SDS011;1795;52.074;4.754;2022-11-12T14:23:08;7.50;;;6.00;;
3561;SDS011;1795;52.074;4.754;2022-11-12T14:25:46;6.40;;;5.80;;
3561;SDS011;1795;52.074;4.754;2022-11-12T14:28:21;7.50;;;6.22;;
3561;SDS011;1795;52.074;4.754;2022-11-12T14:30:51;7.85;;;6.40;;
3561;SDS011;1795;52.074;4.754;2022-11-12T14:33:20;7.70;;;6.47;;
3561;SDS011;1795;52.074;4.754;2022-11-12T14:35:49;9.27;;;7.25;;
3561;SDS011;1795;52.074;4.754;2022-11-12T14:38:18;8.30;;;6.38;;
3561;SDS011;1795;52.074;4.754;2022-11-12T14:40:50;7.90;;;6.85;;
3561;SDS011;1795;52.074;4.754;2022-11-12T14:43:32;9.70;;;6.97;;
3561;SDS011;1795;52.074;4.754;2022-11-12T14:46:02;7.93;;;7.03;;
3561;SDS011;1795;52.074;4.754;2022-11-12T14:48:32;8.52;;;7.32;;
3561;SDS011;1795;52.074;4.754;2022-11-12T14:51:03;11.20;;;7.90;;
3561;SDS011;1795;52.074;4.754;2022-11-12T14:53:33;8.80;;;7.40;;
3561;SDS011;1795;52.074;4.754;2022-11-12T14:56:14;9.38;;;7.65;;
3561;SDS011;1795;52.074;4.754;2022-11-12T14:58:43;8.85;;;7.22;;
3561;SDS011;1795;52.074;4.754;2022-11-12T15:01:19;10.65;;;8.00;;
3561;SDS011;1795;52.074;4.754;2022-11-12T15:04:17;10.57;;;7.28;;
3561;SDS011;1795;52.074;4.754;2022-11-12T15:06:50;8.73;;;7.20;;
3561;SDS011;1795;52.074;4.754;2022-11-12T15:09:30;11.57;;;8.00;;
3561;SDS011;1795;52.074;4.754;2022-11-12T15:12:00;11.60;;;7.90;;
3561;SDS011;1795;52.074;4.754;2022-11-12T15:14:28;9.25;;;7.70;;
3561;SDS011;1795;52.074;4.754;2022-11-12T15:16:57;8.77;;;7.80;;
3561;SDS011;1795;52.074;4.754;2022-11-12T15:19:26;9.68;;;7.22;;
3561;SDS011;1795;52.074;4.754;2022-11-12T15:21:55;10.50;;;7.07;;
3561;SDS011;1795;52.074;4.754;2022-11-12T15:24:24;8.67;;;7.23;;
3561;SDS011;1795;52.074;4.754;2022-11-12T15:26:55;8.18;;;7.28;;
3561;SDS011;1795;52.074;4.754;2022-11-12T15:29:26;10.50;;;7.60;;
3561;SDS011;1795;52.074;4.754;2022-11-12T15:31:56;15.30;;;8.00;;
3561;SDS011;1795;52.074;4.754;2022-11-12T15:34:25;15.00;;;7.70;;
3561;SDS011;1795;52.074;4.754;2022-11-12T15:36:54;10.45;;;8.30;;
3561;SDS011;1795;52.074;4.754;2022-11-12T15:39:22;9.18;;;7.97;;